sensor_id;sensor_type;location;lat;lon;timestamp;temperature;humidity
41592;DHT22;28026;48.562;14.440;2023-08-20T00:00:15;20.70;99.90
41592;DHT22;28026;48.562;14.440;2023-08-20T00:02:51;20.70;99.90
41592;DHT22;28026;48.562;14.440;2023-08-20T00:05:39;20.70;99.90
41592;DHT22;28026;48.562;14.440;2023-08-20T00:08:11;20.70;99.90
41592;DHT22;28026;48.562;14.440;2023-08-20T00:10:41;20.80;99.90
41592;DHT22;28026;48.562;14.440;2023-08-20T00:13:12;20.70;99.90
41592;DHT22;28026;48.562;14.440;2023-08-20T00:15:44;20.80;99.90
41592;DHT22;28026;48.562;14.440;2023-08-20T00:18:15;20.80;99.90
41592;DHT22;28026;48.562;14.440;2023-08-20T00:20:46;20.70;99.90
41592;DHT22;28026;48.562;14.440;2023-08-20T00:23:17;20.70;99.90
41592;DHT22;28026;48.562;14.440;2023-08-20T00:25:49;20.70;99.90
41592;DHT22;28026;48.562;14.440;2023-08-20T00:28:20;20.70;99.90
41592;DHT22;28026;48.562;14.440;2023-08-20T00:30:51;20.70;99.90
41592;DHT22;28026;48.562;14.440;2023-08-20T00:33:22;20.60;99.90
41592;DHT22;28026;48.562;14.440;2023-08-20T00:35:53;20.60;99.90
41592;DHT22;28026;48.562;14.440;2023-08-20T00:38:24;20.60;99.90
41592;DHT22;28026;48.562;14.440;2023-08-20T00:40:55;20.60;99.90
41592;DHT22;28026;48.562;14.440;2023-08-20T00:43:26;20.60;99.90
41592;DHT22;28026;48.562;14.440;2023-08-20T00:45:59;20.60;99.90
41592;DHT22;28026;48.562;14.440;2023-08-20T00:48:30;20.60;99.90
41592;DHT22;28026;48.562;14.440;2023-08-20T00:51:01;20.60;99.90
41592;DHT22;28026;48.562;14.440;2023-08-20T00:53:33;20.50;99.90
41592;DHT22;28026;48.562;14.440;2023-08-20T00:56:04;20.50;99.90
41592;DHT22;28026;48.562;14.440;2023-08-20T00:58:34;20.40;99.90
41592;DHT22;28026;48.562;14.440;2023-08-20T01:01:05;20.30;99.90
41592;DHT22;28026;48.562;14.440;2023-08-20T01:03:36;20.20;99.90
41592;DHT22;28026;48.562;14.440;2023-08-20T01:12:34;20.10;99.90
41592;DHT22;28026;48.562;14.440;2023-08-20T01:15:07;20.20;99.90
41592;DHT22;28026;48.562;14.440;2023-08-20T01:17:44;20.00;99.90
41592;DHT22;28026;48.562;14.440;2023-08-20T01:20:16;19.80;99.90
41592;DHT22;28026;48.562;14.440;2023-08-20T01:26:07;19.60;99.90
41592;DHT22;28026;48.562;14.440;2023-08-20T01:29:04;19.70;99.90
41592;DHT22;28026;48.562;14.440;2023-08-20T01:31:37;19.70;99.90
41592;DHT22;28026;48.562;14.440;2023-08-20T01:34:11;19.70;99.90
41592;DHT22;28026;48.562;14.440;2023-08-20T01:36:43;19.60;99.90
41592;DHT22;28026;48.562;14.440;2023-08-20T01:39:14;19.60;99.90
41592;DHT22;28026;48.562;14.440;2023-08-20T01:41:45;19.60;99.90
41592;DHT22;28026;48.562;14.440;2023-08-20T01:44:16;19.60;99.90
41592;DHT22;28026;48.562;14.440;2023-08-20T01:46:47;19.50;99.90
41592;DHT22;28026;48.562;14.440;2023-08-20T01:49:18;19.50;99.90
41592;DHT22;28026;48.562;14.440;2023-08-20T01:51:49;19.50;99.90
41592;DHT22;28026;48.562;14.440;2023-08-20T01:54:20;19.40;99.90
41592;DHT22;28026;48.562;14.440;2023-08-20T01:56:51;19.40;99.90
41592;DHT22;28026;48.562;14.440;2023-08-20T01:59:22;19.40;99.90
41592;DHT22;28026;48.562;14.440;2023-08-20T02:01:54;19.50;99.90
41592;DHT22;28026;48.562;14.440;2023-08-20T02:04:25;19.40;99.90
41592;DHT22;28026;48.562;14.440;2023-08-20T02:06:55;19.40;99.90
41592;DHT22;28026;48.562;14.440;2023-08-20T02:09:26;19.50;99.90
41592;DHT22;28026;48.562;14.440;2023-08-20T02:11:57;19.50;99.90
41592;DHT22;28026;48.562;14.440;2023-08-20T02:14:28;19.40;99.90
41592;DHT22;28026;48.562;14.440;2023-08-20T02:17:02;19.30;99.90
41592;DHT22;28026;48.562;14.440;2023-08-20T02:19:35;19.30;99.90
41592;DHT22;28026;48.562;14.440;2023-08-20T02:22:06;19.30;99.90
41592;DHT22;28026;48.562;14.440;2023-08-20T02:24:36;19.30;99.90
41592;DHT22;28026;48.562;14.440;2023-08-20T02:27:07;19.30;99.90
41592;DHT22;28026;48.562;14.440;2023-08-20T02:29:38;19.30;99.90
41592;DHT22;28026;48.562;14.440;2023-08-20T02:32:09;19.30;99.90
41592;DHT22;28026;48.562;14.440;2023-08-20T02:34:40;19.30;99.90
41592;DHT22;28026;48.562;14.440;2023-08-20T02:37:10;19.30;99.90
41592;DHT22;28026;48.562;14.440;2023-08-20T02:39:41;19.20;99.90
41592;DHT22;28026;48.562;14.440;2023-08-20T02:42:12;19.10;99.90
41592;DHT22;28026;48.562;14.440;2023-08-20T02:44:43;19.20;99.90
41592;DHT22;28026;48.562;14.440;2023-08-20T02:47:14;19.20;99.90
41592;DHT22;28026;48.562;14.440;2023-08-20T02:49:45;19.20;99.90
41592;DHT22;28026;48.562;14.440;2023-08-20T02:52:15;19.20;99.90
41592;DHT22;28026;48.562;14.440;2023-08-20T02:54:46;19.20;99.90
41592;DHT22;28026;48.562;14.440;2023-08-20T02:57:17;19.20;99.90
41592;DHT22;28026;48.562;14.440;2023-08-20T02:59:48;19.20;99.90
41592;DHT22;28026;48.562;14.440;2023-08-20T03:02:19;19.20;99.90
41592;DHT22;28026;48.562;14.440;2023-08-20T03:04:50;19.20;99.90
41592;DHT22;28026;48.562;14.440;2023-08-20T03:07:21;19.20;99.90
41592;DHT22;28026;48.562;14.440;2023-08-20T03:09:52;19.10;99.90
41592;DHT22;28026;48.562;14.440;2023-08-20T03:12:23;19.20;99.90
41592;DHT22;28026;48.562;14.440;2023-08-20T03:14:54;19.20;99.90
41592;DHT22;28026;48.562;14.440;2023-08-20T03:17:26;19.10;99.90
41592;DHT22;28026;48.562;14.440;2023-08-20T03:20:00;19.00;99.90
41592;DHT22;28026;48.562;14.440;2023-08-20T03:22:32;18.90;99.90
41592;DHT22;28026;48.562;14.440;2023-08-20T03:25:04;18.90;99.90
41592;DHT22;28026;48.562;14.440;2023-08-20T03:27:36;18.90;99.90
41592;DHT22;28026;48.562;14.440;2023-08-20T03:30:07;18.90;99.90
41592;DHT22;28026;48.562;14.440;2023-08-20T03:32:38;18.90;99.90
41592;DHT22;28026;48.562;14.440;2023-08-20T03:35:09;18.90;99.90
41592;DHT22;28026;48.562;14.440;2023-08-20T03:37:40;19.00;99.90
41592;DHT22;28026;48.562;14.440;2023-08-20T03:40:12;19.00;99.90
41592;DHT22;28026;48.562;14.440;2023-08-20T03:42:42;19.00;99.90
41592;DHT22;28026;48.562;14.440;2023-08-20T03:45:13;18.90;99.90
41592;DHT22;28026;48.562;14.440;2023-08-20T03:47:44;19.00;99.90
41592;DHT22;28026;48.562;14.440;2023-08-20T03:50:17;19.00;99.90
41592;DHT22;28026;48.562;14.440;2023-08-20T03:52:48;18.90;99.90
41592;DHT22;28026;48.562;14.440;2023-08-20T03:55:19;18.90;99.90
41592;DHT22;28026;48.562;14.440;2023-08-20T03:57:50;18.80;99.90
41592;DHT22;28026;48.562;14.440;2023-08-20T04:00:21;18.70;99.90
41592;DHT22;28026;48.562;14.440;2023-08-20T04:02:52;18.60;99.90
41592;DHT22;28026;48.562;14.440;2023-08-20T04:05:22;18.50;99.90
41592;DHT22;28026;48.562;14.440;2023-08-20T04:07:53;18.60;99.90
41592;DHT22;28026;48.562;14.440;2023-08-20T04:10:24;18.60;99.90
41592;DHT22;28026;48.562;14.440;2023-08-20T04:12:55;18.70;99.90
41592;DHT22;28026;48.562;14.440;2023-08-20T04:15:26;18.80;99.90
41592;DHT22;28026;48.562;14.440;2023-08-20T04:17:57;18.80;99.90
41592;DHT22;28026;48.562;14.440;2023-08-20T04:20:28;18.80;99.90
41592;DHT22;28026;48.562;14.440;2023-08-20T04:22:59;18.80;99.90
41592;DHT22;28026;48.562;14.440;2023-08-20T04:25:29;18.70;99.90
41592;DHT22;28026;48.562;14.440;2023-08-20T04:28:00;18.60;99.90
41592;DHT22;28026;48.562;14.440;2023-08-20T04:30:31;18.60;99.90
41592;DHT22;28026;48.562;14.440;2023-08-20T04:33:02;18.70;99.90
41592;DHT22;28026;48.562;14.440;2023-08-20T04:35:34;18.70;99.90
41592;DHT22;28026;48.562;14.440;2023-08-20T04:38:05;18.90;99.90
41592;DHT22;28026;48.562;14.440;2023-08-20T04:40:36;19.00;99.90
41592;DHT22;28026;48.562;14.440;2023-08-20T04:43:07;19.00;99.90
41592;DHT22;28026;48.562;14.440;2023-08-20T04:45:37;19.10;99.90
41592;DHT22;28026;48.562;14.440;2023-08-20T04:48:09;19.20;99.90
41592;DHT22;28026;48.562;14.440;2023-08-20T04:50:40;19.20;99.90
41592;DHT22;28026;48.562;14.440;2023-08-20T04:53:11;19.30;99.90
41592;DHT22;28026;48.562;14.440;2023-08-20T04:55:41;19.30;99.90
41592;DHT22;28026;48.562;14.440;2023-08-20T04:58:13;19.40;99.90
41592;DHT22;28026;48.562;14.440;2023-08-20T05:00:44;19.50;99.90
41592;DHT22;28026;48.562;14.440;2023-08-20T05:03:15;19.40;99.90
41592;DHT22;28026;48.562;14.440;2023-08-20T05:05:50;19.60;99.90
41592;DHT22;28026;48.562;14.440;2023-08-20T05:08:21;19.70;99.90
41592;DHT22;28026;48.562;14.440;2023-08-20T05:10:51;19.80;99.90
41592;DHT22;28026;48.562;14.440;2023-08-20T05:13:22;20.00;99.90
41592;DHT22;28026;48.562;14.440;2023-08-20T05:15:54;20.10;99.90
41592;DHT22;28026;48.562;14.440;2023-08-20T05:18:25;20.10;99.90
41592;DHT22;28026;48.562;14.440;2023-08-20T05:20:57;20.20;99.90
41592;DHT22;28026;48.562;14.440;2023-08-20T05:23:28;20.40;99.90
41592;DHT22;28026;48.562;14.440;2023-08-20T05:25:58;20.50;99.90
41592;DHT22;28026;48.562;14.440;2023-08-20T05:28:29;20.70;99.90
41592;DHT22;28026;48.562;14.440;2023-08-20T05:31:00;20.80;99.90
41592;DHT22;28026;48.562;14.440;2023-08-20T05:33:31;20.70;99.90
41592;DHT22;28026;48.562;14.440;2023-08-20T05:36:02;20.80;99.90
41592;DHT22;28026;48.562;14.440;2023-08-20T05:38:33;21.00;99.90
41592;DHT22;28026;48.562;14.440;2023-08-20T05:41:04;21.00;99.90
41592;DHT22;28026;48.562;14.440;2023-08-20T05:43:35;20.60;99.90
41592;DHT22;28026;48.562;14.440;2023-08-20T05:46:08;20.60;99.90
41592;DHT22;28026;48.562;14.440;2023-08-20T05:48:39;20.90;99.90
41592;DHT22;28026;48.562;14.440;2023-08-20T05:51:10;21.20;99.90
41592;DHT22;28026;48.562;14.440;2023-08-20T05:53:41;21.50;99.90
41592;DHT22;28026;48.562;14.440;2023-08-20T05:56:12;21.80;99.90
41592;DHT22;28026;48.562;14.440;2023-08-20T05:58:43;21.90;99.90
41592;DHT22;28026;48.562;14.440;2023-08-20T06:01:14;22.00;99.90
41592;DHT22;28026;48.562;14.440;2023-08-20T06:03:45;22.10;99.90
41592;DHT22;28026;48.562;14.440;2023-08-20T06:06:15;22.30;99.90
41592;DHT22;28026;48.562;14.440;2023-08-20T06:08:46;22.50;99.90
41592;DHT22;28026;48.562;14.440;2023-08-20T06:11:17;22.20;99.90
41592;DHT22;28026;48.562;14.440;2023-08-20T06:13:50;22.00;99.90
41592;DHT22;28026;48.562;14.440;2023-08-20T06:16:20;22.20;99.90
41592;DHT22;28026;48.562;14.440;2023-08-20T06:18:51;22.30;99.90
41592;DHT22;28026;48.562;14.440;2023-08-20T06:21:22;22.10;99.90
41592;DHT22;28026;48.562;14.440;2023-08-20T06:23:53;22.30;99.90
41592;DHT22;28026;48.562;14.440;2023-08-20T06:26:24;22.70;99.90
41592;DHT22;28026;48.562;14.440;2023-08-20T06:28:55;23.10;99.90
41592;DHT22;28026;48.562;14.440;2023-08-20T06:31:26;23.50;99.90
41592;DHT22;28026;48.562;14.440;2023-08-20T06:33:56;23.60;99.90
41592;DHT22;28026;48.562;14.440;2023-08-20T06:36:27;23.70;99.90
41592;DHT22;28026;48.562;14.440;2023-08-20T06:38:58;23.80;99.90
41592;DHT22;28026;48.562;14.440;2023-08-20T06:41:29;24.10;99.90
41592;DHT22;28026;48.562;14.440;2023-08-20T06:44:00;24.10;99.90
41592;DHT22;28026;48.562;14.440;2023-08-20T06:46:32;24.20;99.90
41592;DHT22;28026;48.562;14.440;2023-08-20T06:49:03;24.60;99.90
41592;DHT22;28026;48.562;14.440;2023-08-20T06:51:34;24.90;99.90
41592;DHT22;28026;48.562;14.440;2023-08-20T06:54:05;24.80;99.90
41592;DHT22;28026;48.562;14.440;2023-08-20T06:56:36;24.80;99.90
41592;DHT22;28026;48.562;14.440;2023-08-20T06:59:07;24.70;99.90
41592;DHT22;28026;48.562;14.440;2023-08-20T07:01:38;24.70;99.90
41592;DHT22;28026;48.562;14.440;2023-08-20T07:04:09;25.10;99.90
41592;DHT22;28026;48.562;14.440;2023-08-20T07:06:39;25.50;99.90
41592;DHT22;28026;48.562;14.440;2023-08-20T07:09:12;25.70;99.90
41592;DHT22;28026;48.562;14.440;2023-08-20T07:11:43;25.90;99.90
41592;DHT22;28026;48.562;14.440;2023-08-20T07:14:14;26.20;99.90
41592;DHT22;28026;48.562;14.440;2023-08-20T07:16:44;26.20;99.90
41592;DHT22;28026;48.562;14.440;2023-08-20T07:19:15;26.30;99.90
41592;DHT22;28026;48.562;14.440;2023-08-20T07:21:46;26.40;99.90
41592;DHT22;28026;48.562;14.440;2023-08-20T07:24:17;26.50;99.90
41592;DHT22;28026;48.562;14.440;2023-08-20T07:26:48;26.60;99.90
41592;DHT22;28026;48.562;14.440;2023-08-20T07:29:19;26.90;99.90
41592;DHT22;28026;48.562;14.440;2023-08-20T07:31:51;26.90;99.90
41592;DHT22;28026;48.562;14.440;2023-08-20T07:34:22;26.90;99.90
41592;DHT22;28026;48.562;14.440;2023-08-20T07:36:53;26.80;99.90
41592;DHT22;28026;48.562;14.440;2023-08-20T07:39:24;26.80;99.90
41592;DHT22;28026;48.562;14.440;2023-08-20T07:41:54;27.00;99.90
41592;DHT22;28026;48.562;14.440;2023-08-20T07:44:25;27.40;99.90
41592;DHT22;28026;48.562;14.440;2023-08-20T07:46:56;27.60;99.90
41592;DHT22;28026;48.562;14.440;2023-08-20T07:49:27;28.00;99.90
41592;DHT22;28026;48.562;14.440;2023-08-20T07:51:58;27.50;99.90
41592;DHT22;28026;48.562;14.440;2023-08-20T07:54:29;27.40;99.90
41592;DHT22;28026;48.562;14.440;2023-08-20T07:57:00;26.90;99.90
41592;DHT22;28026;48.562;14.440;2023-08-20T07:59:30;26.80;99.90
41592;DHT22;28026;48.562;14.440;2023-08-20T08:02:01;27.10;99.90
41592;DHT22;28026;48.562;14.440;2023-08-20T08:04:34;27.10;99.90
41592;DHT22;28026;48.562;14.440;2023-08-20T08:07:06;27.90;99.90
41592;DHT22;28026;48.562;14.440;2023-08-20T08:09:37;28.50;99.90
41592;DHT22;28026;48.562;14.440;2023-08-20T08:12:08;28.50;99.90
41592;DHT22;28026;48.562;14.440;2023-08-20T08:14:39;28.40;99.90
41592;DHT22;28026;48.562;14.440;2023-08-20T08:17:10;28.70;99.90
41592;DHT22;28026;48.562;14.440;2023-08-20T08:19:41;28.60;99.90
41592;DHT22;28026;48.562;14.440;2023-08-20T08:22:11;28.80;99.90
41592;DHT22;28026;48.562;14.440;2023-08-20T08:24:42;29.30;99.90
41592;DHT22;28026;48.562;14.440;2023-08-20T08:27:14;29.30;99.90
41592;DHT22;28026;48.562;14.440;2023-08-20T08:29:44;29.80;99.90
41592;DHT22;28026;48.562;14.440;2023-08-20T08:32:15;29.80;99.90
41592;DHT22;28026;48.562;14.440;2023-08-20T08:34:46;28.80;99.90
41592;DHT22;28026;48.562;14.440;2023-08-20T08:37:17;29.10;99.90
41592;DHT22;28026;48.562;14.440;2023-08-20T08:39:48;29.10;99.90
41592;DHT22;28026;48.562;14.440;2023-08-20T08:42:21;29.60;99.90
41592;DHT22;28026;48.562;14.440;2023-08-20T08:44:55;29.70;99.90
41592;DHT22;28026;48.562;14.440;2023-08-20T08:47:27;29.50;99.90
41592;DHT22;28026;48.562;14.440;2023-08-20T08:50:00;30.20;99.90
41592;DHT22;28026;48.562;14.440;2023-08-20T08:52:33;30.40;99.90
41592;DHT22;28026;48.562;14.440;2023-08-20T08:55:05;30.20;99.90
41592;DHT22;28026;48.562;14.440;2023-08-20T08:57:38;30.40;99.90
41592;DHT22;28026;48.562;14.440;2023-08-20T09:00:10;30.20;99.90
41592;DHT22;28026;48.562;14.440;2023-08-20T09:02:41;29.50;99.90
41592;DHT22;28026;48.562;14.440;2023-08-20T09:05:13;29.60;99.90
41592;DHT22;28026;48.562;14.440;2023-08-20T09:07:45;30.00;99.90
41592;DHT22;28026;48.562;14.440;2023-08-20T09:10:16;30.10;99.90
41592;DHT22;28026;48.562;14.440;2023-08-20T09:12:48;30.40;99.90
41592;DHT22;28026;48.562;14.440;2023-08-20T09:15:19;30.50;99.90
41592;DHT22;28026;48.562;14.440;2023-08-20T09:17:50;30.50;99.90
41592;DHT22;28026;48.562;14.440;2023-08-20T09:20:35;30.50;99.90
41592;DHT22;28026;48.562;14.440;2023-08-20T09:23:13;30.30;99.90
41592;DHT22;28026;48.562;14.440;2023-08-20T09:25:44;30.10;99.90
41592;DHT22;28026;48.562;14.440;2023-08-20T09:28:15;29.70;99.90
41592;DHT22;28026;48.562;14.440;2023-08-20T09:30:59;29.50;99.90
41592;DHT22;28026;48.562;14.440;2023-08-20T09:33:34;29.30;99.90
41592;DHT22;28026;48.562;14.440;2023-08-20T09:36:05;29.50;99.90
41592;DHT22;28026;48.562;14.440;2023-08-20T09:38:38;29.70;99.90
41592;DHT22;28026;48.562;14.440;2023-08-20T09:41:09;29.60;99.90
41592;DHT22;28026;48.562;14.440;2023-08-20T09:43:44;29.30;99.90
41592;DHT22;28026;48.562;14.440;2023-08-20T09:46:19;29.20;99.90
41592;DHT22;28026;48.562;14.440;2023-08-20T09:48:57;29.20;99.90
41592;DHT22;28026;48.562;14.440;2023-08-20T09:51:32;29.10;99.90
41592;DHT22;28026;48.562;14.440;2023-08-20T09:54:32;29.20;99.90
41592;DHT22;28026;48.562;14.440;2023-08-20T09:57:35;29.60;99.90
41592;DHT22;28026;48.562;14.440;2023-08-20T10:00:10;30.10;99.90
41592;DHT22;28026;48.562;14.440;2023-08-20T10:02:43;30.20;99.90
41592;DHT22;28026;48.562;14.440;2023-08-20T10:05:14;30.50;99.90
41592;DHT22;28026;48.562;14.440;2023-08-20T10:07:46;30.60;99.90
41592;DHT22;28026;48.562;14.440;2023-08-20T10:10:18;30.90;99.90
41592;DHT22;28026;48.562;14.440;2023-08-20T10:12:49;30.50;99.90
41592;DHT22;28026;48.562;14.440;2023-08-20T10:15:21;30.60;99.90
41592;DHT22;28026;48.562;14.440;2023-08-20T10:17:57;30.70;99.90
41592;DHT22;28026;48.562;14.440;2023-08-20T10:20:31;30.30;99.90
41592;DHT22;28026;48.562;14.440;2023-08-20T10:23:03;29.90;99.90
41592;DHT22;28026;48.562;14.440;2023-08-20T10:25:41;29.70;99.90
41592;DHT22;28026;48.562;14.440;2023-08-20T10:28:25;29.50;99.90
41592;DHT22;28026;48.562;14.440;2023-08-20T10:31:12;29.50;99.90
41592;DHT22;28026;48.562;14.440;2023-08-20T10:36:19;30.50;99.90
41592;DHT22;28026;48.562;14.440;2023-08-20T10:39:05;30.70;99.90
41592;DHT22;28026;48.562;14.440;2023-08-20T10:41:36;31.40;99.90
41592;DHT22;28026;48.562;14.440;2023-08-20T10:44:07;31.80;99.90
41592;DHT22;28026;48.562;14.440;2023-08-20T10:46:49;31.10;99.90
41592;DHT22;28026;48.562;14.440;2023-08-20T10:49:22;30.70;99.90
41592;DHT22;28026;48.562;14.440;2023-08-20T10:51:53;31.10;99.90
41592;DHT22;28026;48.562;14.440;2023-08-20T10:54:27;31.40;99.90
41592;DHT22;28026;48.562;14.440;2023-08-20T10:56:58;31.90;99.90
41592;DHT22;28026;48.562;14.440;2023-08-20T10:59:29;31.30;99.90
41592;DHT22;28026;48.562;14.440;2023-08-20T11:02:01;31.00;99.90
41592;DHT22;28026;48.562;14.440;2023-08-20T11:04:33;30.60;99.90
41592;DHT22;28026;48.562;14.440;2023-08-20T11:07:04;30.60;99.90
41592;DHT22;28026;48.562;14.440;2023-08-20T11:09:35;30.70;99.90
41592;DHT22;28026;48.562;14.440;2023-08-20T11:12:07;30.70;99.90
41592;DHT22;28026;48.562;14.440;2023-08-20T11:14:38;32.00;99.90
41592;DHT22;28026;48.562;14.440;2023-08-20T11:17:09;32.20;99.90
41592;DHT22;28026;48.562;14.440;2023-08-20T11:19:40;32.00;99.90
41592;DHT22;28026;48.562;14.440;2023-08-20T11:22:11;31.60;99.90
41592;DHT22;28026;48.562;14.440;2023-08-20T11:24:44;31.50;99.90
41592;DHT22;28026;48.562;14.440;2023-08-20T11:27:15;32.50;99.90
41592;DHT22;28026;48.562;14.440;2023-08-20T11:29:46;33.20;99.90
41592;DHT22;28026;48.562;14.440;2023-08-20T11:32:17;32.70;99.90
41592;DHT22;28026;48.562;14.440;2023-08-20T11:34:48;33.30;99.90
41592;DHT22;28026;48.562;14.440;2023-08-20T11:37:21;33.70;99.90
41592;DHT22;28026;48.562;14.440;2023-08-20T11:39:52;34.20;99.90
41592;DHT22;28026;48.562;14.440;2023-08-20T11:42:23;33.30;99.90
41592;DHT22;28026;48.562;14.440;2023-08-20T11:44:56;32.10;99.90
41592;DHT22;28026;48.562;14.440;2023-08-20T11:47:28;32.80;99.90
41592;DHT22;28026;48.562;14.440;2023-08-20T11:50:03;33.20;99.90
41592;DHT22;28026;48.562;14.440;2023-08-20T11:52:36;32.30;99.90
41592;DHT22;28026;48.562;14.440;2023-08-20T11:55:09;31.60;99.90
41592;DHT22;28026;48.562;14.440;2023-08-20T11:57:40;31.50;99.90
41592;DHT22;28026;48.562;14.440;2023-08-20T12:00:24;30.60;99.90
41592;DHT22;28026;48.562;14.440;2023-08-20T12:02:58;30.10;99.90
41592;DHT22;28026;48.562;14.440;2023-08-20T12:05:30;31.00;99.90
41592;DHT22;28026;48.562;14.440;2023-08-20T12:08:03;32.40;99.90
41592;DHT22;28026;48.562;14.440;2023-08-20T12:10:35;33.70;99.90
41592;DHT22;28026;48.562;14.440;2023-08-20T12:13:06;34.00;99.90
41592;DHT22;28026;48.562;14.440;2023-08-20T12:15:38;33.70;99.90
41592;DHT22;28026;48.562;14.440;2023-08-20T12:18:09;33.20;99.90
41592;DHT22;28026;48.562;14.440;2023-08-20T12:20:40;32.50;99.90
41592;DHT22;28026;48.562;14.440;2023-08-20T12:23:12;32.50;99.90
41592;DHT22;28026;48.562;14.440;2023-08-20T12:25:43;32.40;99.90
41592;DHT22;28026;48.562;14.440;2023-08-20T12:28:14;32.10;99.90
41592;DHT22;28026;48.562;14.440;2023-08-20T12:30:44;32.30;99.90
41592;DHT22;28026;48.562;14.440;2023-08-20T12:33:16;32.20;99.90
41592;DHT22;28026;48.562;14.440;2023-08-20T12:35:47;32.70;99.90
41592;DHT22;28026;48.562;14.440;2023-08-20T12:38:18;31.80;99.90
41592;DHT22;28026;48.562;14.440;2023-08-20T12:40:49;32.20;99.90
41592;DHT22;28026;48.562;14.440;2023-08-20T12:43:20;33.30;99.90
41592;DHT22;28026;48.562;14.440;2023-08-20T12:45:50;32.30;99.90
41592;DHT22;28026;48.562;14.440;2023-08-20T12:48:21;32.70;99.90
41592;DHT22;28026;48.562;14.440;2023-08-20T12:50:52;32.60;99.90
41592;DHT22;28026;48.562;14.440;2023-08-20T12:53:23;33.50;99.90
41592;DHT22;28026;48.562;14.440;2023-08-20T12:55:54;34.40;99.90
41592;DHT22;28026;48.562;14.440;2023-08-20T12:58:25;35.30;99.90
41592;DHT22;28026;48.562;14.440;2023-08-20T13:00:56;35.50;99.90
41592;DHT22;28026;48.562;14.440;2023-08-20T13:03:27;35.00;99.90
41592;DHT22;28026;48.562;14.440;2023-08-20T13:05:59;33.90;99.90
41592;DHT22;28026;48.562;14.440;2023-08-20T13:08:30;33.50;99.90
41592;DHT22;28026;48.562;14.440;2023-08-20T13:11:03;34.70;99.90
41592;DHT22;28026;48.562;14.440;2023-08-20T13:13:37;34.70;99.90
41592;DHT22;28026;48.562;14.440;2023-08-20T13:16:08;35.40;99.70
41592;DHT22;28026;48.562;14.440;2023-08-20T13:18:40;35.70;97.40
41592;DHT22;28026;48.562;14.440;2023-08-20T13:21:11;35.30;96.90
41592;DHT22;28026;48.562;14.440;2023-08-20T13:23:42;33.80;98.30
41592;DHT22;28026;48.562;14.440;2023-08-20T13:26:14;33.00;99.60
41592;DHT22;28026;48.562;14.440;2023-08-20T13:28:45;33.60;99.90
41592;DHT22;28026;48.562;14.440;2023-08-20T13:31:16;33.80;98.10
41592;DHT22;28026;48.562;14.440;2023-08-20T13:33:47;34.10;98.10
41592;DHT22;28026;48.562;14.440;2023-08-20T13:36:19;34.20;99.80
41592;DHT22;28026;48.562;14.440;2023-08-20T13:38:50;34.40;99.10
41592;DHT22;28026;48.562;14.440;2023-08-20T13:41:21;34.90;99.20
41592;DHT22;28026;48.562;14.440;2023-08-20T13:43:52;35.40;98.10
41592;DHT22;28026;48.562;14.440;2023-08-20T13:46:23;35.10;98.20
41592;DHT22;28026;48.562;14.440;2023-08-20T13:48:54;34.90;98.20
41592;DHT22;28026;48.562;14.440;2023-08-20T13:51:25;34.80;98.20
41592;DHT22;28026;48.562;14.440;2023-08-20T13:53:56;35.20;98.00
41592;DHT22;28026;48.562;14.440;2023-08-20T13:56:28;35.50;97.50
41592;DHT22;28026;48.562;14.440;2023-08-20T13:58:59;35.80;96.40
41592;DHT22;28026;48.562;14.440;2023-08-20T14:01:30;35.80;97.70
41592;DHT22;28026;48.562;14.440;2023-08-20T14:04:00;35.70;97.10
41592;DHT22;28026;48.562;14.440;2023-08-20T14:06:33;35.30;97.20
41592;DHT22;28026;48.562;14.440;2023-08-20T14:09:04;35.20;97.50
41592;DHT22;28026;48.562;14.440;2023-08-20T14:11:35;34.70;96.80
41592;DHT22;28026;48.562;14.440;2023-08-20T14:14:05;34.10;97.70
41592;DHT22;28026;48.562;14.440;2023-08-20T14:16:36;33.90;98.60
41592;DHT22;28026;48.562;14.440;2023-08-20T14:19:07;34.50;98.30
41592;DHT22;28026;48.562;14.440;2023-08-20T14:21:38;35.00;97.80
41592;DHT22;28026;48.562;14.440;2023-08-20T14:24:09;35.10;97.40
41592;DHT22;28026;48.562;14.440;2023-08-20T14:26:40;34.90;97.40
41592;DHT22;28026;48.562;14.440;2023-08-20T14:29:11;35.40;96.70
41592;DHT22;28026;48.562;14.440;2023-08-20T14:31:42;35.20;96.60
41592;DHT22;28026;48.562;14.440;2023-08-20T14:34:13;34.50;97.80
41592;DHT22;28026;48.562;14.440;2023-08-20T14:36:44;34.60;96.40
41592;DHT22;28026;48.562;14.440;2023-08-20T14:39:14;34.60;97.00
41592;DHT22;28026;48.562;14.440;2023-08-20T14:41:45;33.70;99.40
41592;DHT22;28026;48.562;14.440;2023-08-20T14:44:16;33.40;99.90
41592;DHT22;28026;48.562;14.440;2023-08-20T14:46:47;32.80;99.90
41592;DHT22;28026;48.562;14.440;2023-08-20T14:49:18;32.70;99.90
41592;DHT22;28026;48.562;14.440;2023-08-20T14:51:49;33.10;99.90
41592;DHT22;28026;48.562;14.440;2023-08-20T14:54:20;33.30;99.90
41592;DHT22;28026;48.562;14.440;2023-08-20T14:56:52;33.60;99.90
41592;DHT22;28026;48.562;14.440;2023-08-20T14:59:23;33.40;99.90
41592;DHT22;28026;48.562;14.440;2023-08-20T15:01:54;34.00;99.90
41592;DHT22;28026;48.562;14.440;2023-08-20T15:04:25;33.70;99.90
41592;DHT22;28026;48.562;14.440;2023-08-20T15:06:56;34.10;99.50
41592;DHT22;28026;48.562;14.440;2023-08-20T15:09:26;33.70;99.80
41592;DHT22;28026;48.562;14.440;2023-08-20T15:11:57;33.10;99.90
41592;DHT22;28026;48.562;14.440;2023-08-20T15:14:28;33.40;99.90
41592;DHT22;28026;48.562;14.440;2023-08-20T15:16:59;33.60;99.90
41592;DHT22;28026;48.562;14.440;2023-08-20T15:19:30;33.10;99.90
41592;DHT22;28026;48.562;14.440;2023-08-20T15:22:01;32.80;99.90
41592;DHT22;28026;48.562;14.440;2023-08-20T15:24:33;32.70;99.90
41592;DHT22;28026;48.562;14.440;2023-08-20T15:27:04;32.60;99.90
41592;DHT22;28026;48.562;14.440;2023-08-20T15:29:35;31.80;99.90
41592;DHT22;28026;48.562;14.440;2023-08-20T15:32:06;31.20;99.90
41592;DHT22;28026;48.562;14.440;2023-08-20T15:34:37;30.70;99.90
41592;DHT22;28026;48.562;14.440;2023-08-20T15:37:08;30.50;99.90
41592;DHT22;28026;48.562;14.440;2023-08-20T15:39:39;30.70;99.90
41592;DHT22;28026;48.562;14.440;2023-08-20T15:42:10;30.60;99.90
41592;DHT22;28026;48.562;14.440;2023-08-20T15:44:41;30.60;99.90
41592;DHT22;28026;48.562;14.440;2023-08-20T15:47:12;30.40;99.90
41592;DHT22;28026;48.562;14.440;2023-08-20T15:49:43;30.30;99.90
41592;DHT22;28026;48.562;14.440;2023-08-20T15:52:14;30.20;99.90
41592;DHT22;28026;48.562;14.440;2023-08-20T15:54:45;29.80;99.90